Time;durP1;ratioP1;P1;durP2;ratioP2;P2;SDS_P1;SDS_P2;PMS_P1;PMS_P2;Temp;Humidity;BMP_temperature;BMP_pressure;BME280_temperature;BME280_humidity;BME280_pressure;Samples;Min_cycle;Max_cycle;Signal;HPM_P1;HPM_P2
2021/03/08 00:01:04;;;;;;;50.97;35.97;;;;;;;13.88;24.16;94535.13;5099974;28;20039;-44
2021/03/08 00:03:31;;;;;;;51.42;35.25;;;;;;;13.72;24.26;94538.44;5118149;28;20055;-44
2021/03/08 00:05:59;;;;;;;53.80;36.42;;;;;;;13.44;24.40;94541.22;5117803;28;20052;-43
2021/03/08 00:08:26;;;;;;;53.85;36.50;;;;;;;13.41;24.79;94544.44;5103595;28;20043;-44
2021/03/08 00:10:53;;;;;;;52.22;36.17;;;;;;;13.72;24.29;94541.84;5112954;28;20050;-44
2021/03/08 00:13:20;;;;;;;48.95;35.85;;;;;;;13.31;24.69;94542.06;5118052;28;20058;-44
2021/03/08 00:15:47;;;;;;;50.20;36.65;;;;;;;13.00;25.15;94541.16;5117686;28;20378;-44
2021/03/08 00:18:14;;;;;;;48.88;35.75;;;;;;;13.24;24.86;94536.44;5118196;28;20350;-43
2021/03/08 00:20:41;;;;;;;46.10;33.90;;;;;;;13.04;25.21;94539.50;5117297;27;20051;-43
2021/03/08 00:23:09;;;;;;;48.85;35.50;;;;;;;13.38;24.70;94537.16;5117726;28;20054;-43
2021/03/08 00:25:36;;;;;;;48.13;34.88;;;;;;;13.35;25.21;94534.34;5117983;28;20055;-43
2021/03/08 00:28:03;;;;;;;49.13;35.30;;;;;;;13.55;24.58;94520.75;5117570;28;20417;-44
2021/03/08 00:30:31;;;;;;;46.45;34.22;;;;;;;13.67;24.29;94528.06;5117330;28;20050;-44
2021/03/08 00:32:58;;;;;;;47.13;35.42;;;;;;;13.57;24.49;94524.63;5116795;28;20047;-43
2021/03/08 00:35:25;;;;;;;42.85;31.83;;;;;;;13.47;25.16;94519.59;5117281;28;20063;-44
2021/03/08 00:37:52;;;;;;;49.63;32.90;;;;;;;13.68;24.85;94519.09;5117451;28;20674;-44
2021/03/08 00:40:21;;;;;;;47.28;34.50;;;;;;;14.11;24.02;94525.34;5127323;27;20476;-44
2021/03/08 00:42:49;;;;;;;48.30;32.22;;;;;;;13.53;24.52;94512.38;5137806;27;20047;-43
2021/03/08 00:45:21;;;;;;;48.17;33.83;;;;;;;13.34;25.05;94515.22;5137829;27;20047;-44
2021/03/08 00:47:55;;;;;;;46.28;33.15;;;;;;;13.18;25.34;94500.88;5137225;27;20059;-45
2021/03/08 00:50:27;;;;;;;42.90;30.98;;;;;;;13.55;24.71;94508.38;5119487;27;20039;-44
2021/03/08 00:52:55;;;;;;;45.35;32.05;;;;;;;13.29;24.72;94517.19;5102122;28;20335;-44
2021/03/08 00:55:23;;;;;;;42.33;30.27;;;;;;;13.25;25.15;94511.72;5078698;28;20048;-43
2021/03/08 00:57:51;;;;;;;44.55;31.58;;;;;;;13.23;24.85;94516.50;5078862;28;20044;-44
2021/03/08 01:00:24;;;;;;;42.05;32.15;;;;;;;13.28;25.10;94508.53;5105714;28;20446;-43
2021/03/08 01:02:56;;;;;;;43.88;31.75;;;;;;;13.41;24.63;94510.31;5098947;28;20047;-44
2021/03/08 01:05:27;;;;;;;42.50;32.03;;;;;;;13.20;25.18;94509.22;5095275;28;20050;-42
2021/03/08 01:07:55;;;;;;;44.80;33.67;;;;;;;13.57;24.68;94503.59;5078698;28;20052;-43
2021/03/08 01:10:30;;;;;;;48.08;34.55;;;;;;;13.49;25.13;94493.81;5099256;27;20039;-43
2021/03/08 01:13:00;;;;;;;49.47;34.35;;;;;;;13.85;24.56;94493.69;5119280;27;20054;-44
2021/03/08 01:15:29;;;;;;;47.13;33.65;;;;;;;13.56;24.68;94488.94;5118964;27;20051;-44
2021/03/08 01:17:56;;;;;;;47.75;34.33;;;;;;;13.28;25.41;94487.53;5137247;27;20047;-44
2021/03/08 01:20:24;;;;;;;44.92;32.58;;;;;;;13.66;24.64;94485.25;5127341;27;20047;-43
2021/03/08 01:22:51;;;;;;;47.78;33.85;;;;;;;13.28;25.02;94490.16;5108126;28;20047;-43
2021/03/08 01:25:24;;;;;;;48.03;34.95;;;;;;;13.64;24.56;94481.38;5096015;28;20048;-43
2021/03/08 01:27:51;;;;;;;51.20;35.25;;;;;;;13.28;25.29;94484.91;5096119;28;20048;-43
2021/03/08 01:30:22;;;;;;;48.05;35.35;;;;;;;13.54;24.79;94480.56;5104038;28;20044;-44
2021/03/08 01:32:50;;;;;;;45.92;35.63;;;;;;;13.08;25.30;94474.84;5116156;28;20477;-44
2021/03/08 01:35:17;;;;;;;43.30;30.63;;;;;;;13.33;25.23;94474.28;5116245;28;20058;-44
2021/03/08 01:37:44;;;;;;;45.20;33.33;;;;;;;13.44;25.18;94475.56;5116290;28;20051;-44
2021/03/08 01:40:14;;;;;;;42.88;33.90;;;;;;;13.46;25.14;94470.78;5116028;28;20046;-44
2021/03/08 01:42:41;;;;;;;40.40;29.33;;;;;;;13.48;25.20;94468.63;5115890;28;20039;-44
2021/03/08 01:45:14;;;;;;;43.03;29.63;;;;;;;13.60;25.24;94464.69;5115394;28;20051;-44
2021/03/08 01:47:43;;;;;;;42.92;29.10;;;;;;;14.00;24.79;94453.06;5113480;28;20074;-44
2021/03/08 01:50:22;;;;;;;42.50;30.38;;;;;;;13.74;24.89;94439.06;5102324;28;20378;-44
2021/03/08 01:52:51;;;;;;;37.65;28.58;;;;;;;13.72;25.13;94452.50;5112109;28;20047;-43
2021/03/08 01:55:19;;;;;;;42.10;28.50;;;;;;;13.75;24.79;94448.50;5097856;28;20055;-44
2021/03/08 01:57:46;;;;;;;41.42;30.20;;;;;;;13.63;25.20;94438.56;5077880;28;20048;-44
2021/03/08 02:00:15;;;;;;;39.85;30.80;;;;;;;13.94;24.83;94438.53;5084265;28;20043;-43
2021/03/08 02:02:43;;;;;;;40.22;29.27;;;;;;;13.85;24.66;94435.88;5098069;28;20052;-44
2021/03/08 02:05:14;;;;;;;37.83;29.42;;;;;;;13.52;25.21;94432.78;5095001;28;20052;-43
2021/03/08 02:07:41;;;;;;;39.88;28.80;;;;;;;13.62;24.96;94442.28;5094868;28;20044;-44
2021/03/08 02:10:13;;;;;;;38.85;28.48;;;;;;;13.48;25.19;94431.84;5100259;28;20050;-43
2021/03/08 02:12:43;;;;;;;39.37;27.93;;;;;;;13.78;25.00;94427.66;5115230;28;20048;-43
2021/03/08 02:15:44;;;;;;;39.83;30.45;;;;;;;13.24;25.71;94429.56;5115576;28;20361;-43
2021/03/08 02:18:18;;;;;;;36.67;28.38;;;;;;;13.54;24.97;94433.28;5115645;28;20047;-43
2021/03/08 02:21:23;;;;;;;42.50;29.23;;;;;;;13.35;25.60;94426.72;5114928;28;20058;-44
2021/03/08 02:24:24;;;;;;;40.75;29.15;;;;;;;13.47;25.09;94430.31;5115321;28;20073;-43
2021/03/08 02:27:25;;;;;;;42.05;32.97;;;;;;;13.44;25.27;94417.78;5115620;28;20043;-46
2021/03/08 02:30:05;;;;;;;40.42;29.92;;;;;;;13.44;25.57;94417.78;5095747;28;20047;-43
2021/03/08 02:32:35;;;;;;;38.63;28.40;;;;;;;13.87;24.99;94417.19;5115630;28;20044;-43
2021/03/08 02:35:14;;;;;;;39.17;28.77;;;;;;;13.58;24.93;94420.34;5097549;28;20055;-44
2021/03/08 02:38:05;;;;;;;38.67;28.60;;;;;;;13.24;25.53;94418.28;5097694;28;20047;-44
2021/03/08 02:40:35;;;;;;;41.25;28.83;;;;;;;13.04;25.71;94411.69;5090213;28;20458;-44
2021/03/08 02:43:05;;;;;;;41.58;29.77;;;;;;;13.06;25.58;94401.66;5077356;28;20048;-43
2021/03/08 02:45:33;;;;;;;38.75;30.73;;;;;;;13.32;25.17;94414.97;5077326;28;20044;-44
2021/03/08 02:48:02;;;;;;;39.00;30.25;;;;;;;13.16;25.57;94414.53;5095017;28;20051;-43
2021/03/08 02:50:34;;;;;;;43.10;32.88;;;;;;;13.29;25.24;94412.94;5102358;28;20040;-44
2021/03/08 02:53:05;;;;;;;40.90;31.92;;;;;;;13.10;25.75;94414.97;5114807;28;20043;-47
2021/03/08 02:55:58;;;;;;;38.88;30.20;;;;;;;13.30;25.42;94409.25;5117584;28;20044;-44
2021/03/08 02:58:26;;;;;;;43.40;31.40;;;;;;;13.57;24.58;94408.28;5119550;28;20048;-43
2021/03/08 03:00:54;;;;;;;42.50;30.65;;;;;;;13.31;25.08;94410.78;5101058;28;20043;-43
2021/03/08 03:03:22;;;;;;;41.40;30.95;;;;;;;13.41;25.21;94413.13;5101390;28;20047;-43
2021/03/08 03:05:50;;;;;;;42.63;31.08;;;;;;;12.84;26.03;94405.06;5101325;28;20059;-43
2021/03/08 03:08:20;;;;;;;44.33;31.70;;;;;;;13.25;25.23;94411.97;5101295;28;20039;-44
2021/03/08 03:10:47;;;;;;;53.80;36.28;;;;;;;13.17;25.19;94399.56;5101065;28;20043;-44
2021/03/08 03:13:14;;;;;;;43.97;32.90;;;;;;;13.25;25.47;94406.72;5119232;28;20726;-43
2021/03/08 03:15:41;;;;;;;42.53;31.52;;;;;;;13.30;25.21;94406.63;5101099;28;20055;-43
2021/03/08 03:18:10;;;;;;;60.25;40.40;;;;;;;13.56;24.50;94397.00;5094612;28;20039;-43
2021/03/08 03:20:39;;;;;;;51.22;35.58;;;;;;;13.12;25.35;94404.94;5087752;28;20062;-43
2021/03/08 03:23:07;;;;;;;46.08;32.90;;;;;;;13.49;24.66;94396.63;5093481;28;20048;-43
2021/03/08 03:25:34;;;;;;;49.08;33.42;;;;;;;13.55;24.89;94395.44;5080608;28;20055;-43
2021/03/08 03:28:02;;;;;;;50.75;34.75;;;;;;;13.38;24.93;94405.88;5080494;28;20054;-43
2021/03/08 03:30:30;;;;;;;50.50;35.20;;;;;;;13.57;24.67;94406.41;5086305;28;20040;-44
2021/03/08 03:32:58;;;;;;;48.35;35.05;;;;;;;13.32;25.02;94401.84;5100692;28;20047;-44
2021/03/08 03:35:27;;;;;;;51.22;36.08;;;;;;;13.20;24.92;94389.25;5118548;28;20054;-44
2021/03/08 03:37:56;;;;;;;51.33;35.42;;;;;;;12.93;25.33;94392.78;5110985;28;20052;-43
2021/03/08 03:40:24;;;;;;;46.45;33.63;;;;;;;12.85;25.35;94393.50;5102876;28;20481;-43
2021/03/08 03:42:52;;;;;;;43.55;31.30;;;;;;;12.82;25.58;94383.59;5118544;28;20055;-43
2021/03/08 03:45:24;;;;;;;43.35;31.65;;;;;;;13.29;24.94;94391.94;5118415;28;20051;-44
2021/03/08 03:47:51;;;;;;;40.95;30.52;;;;;;;12.70;25.30;94401.72;5117324;28;20054;-44
2021/03/08 03:50:21;;;;;;;41.58;30.20;;;;;;;12.83;25.28;94390.41;5118182;28;20039;-44
2021/03/08 03:52:48;;;;;;;45.33;30.13;;;;;;;12.84;25.22;94391.97;5118043;28;20051;-43
2021/03/08 03:55:17;;;;;;;42.05;30.23;;;;;;;12.61;25.50;94395.66;5118262;28;20056;-43
2021/03/08 03:58:13;;;;;;;42.50;28.63;;;;;;;12.73;25.48;94409.00;5118251;28;20125;-44
2021/03/08 04:01:09;;;;;;;40.90;27.92;;;;;;;12.53;25.68;94406.84;5099891;28;20442;-43
2021/03/08 04:03:57;;;;;;;43.58;27.17;;;;;;;12.89;25.39;94404.94;5100152;28;20043;-44
2021/03/08 04:06:33;;;;;;;41.00;26.98;;;;;;;12.78;25.59;94403.66;5099351;28;20047;-43
2021/03/08 04:09:04;;;;;;;39.85;27.85;;;;;;;12.85;25.60;94398.75;5117941;28;20078;-43
2021/03/08 04:11:33;;;;;;;45.35;26.70;;;;;;;12.74;25.44;94397.41;5117743;28;20343;-48
2021/03/08 04:14:02;;;;;;;45.58;28.65;;;;;;;12.58;25.78;94389.16;5117307;28;20449;-44
2021/03/08 04:16:31;;;;;;;54.40;36.38;;;;;;;13.05;25.26;94401.97;5118030;28;20335;-43
2021/03/08 04:19:00;;;;;;;52.50;34.70;;;;;;;12.82;25.59;94403.81;5118047;28;20059;-44
2021/03/08 04:21:29;;;;;;;45.55;31.38;;;;;;;13.15;24.98;94391.97;5099210;28;20056;-42
2021/03/08 04:23:56;;;;;;;47.90;34.17;;;;;;;12.77;25.68;94394.22;5099417;28;20472;-43
2021/03/08 04:26:24;;;;;;;50.97;34.80;;;;;;;12.69;25.27;94402.03;5099833;28;20039;-43
2021/03/08 04:28:52;;;;;;;49.88;32.25;;;;;;;12.84;25.65;94391.97;5099651;28;20048;-46
2021/03/08 04:31:19;;;;;;;44.20;33.22;;;;;;;12.91;25.70;94399.41;5117405;28;20043;-44
2021/03/08 04:33:47;;;;;;;44.47;33.20;;;;;;;13.10;25.20;94399.22;5099613;28;20043;-44
2021/03/08 04:36:15;;;;;;;45.97;31.92;;;;;;;13.41;24.40;94394.75;5099666;28;20044;-43
2021/03/08 04:38:43;;;;;;;45.85;32.35;;;;;;;13.02;25.41;94397.31;5117393;28;20047;-43
2021/03/08 04:41:11;;;;;;;47.35;34.50;;;;;;;13.37;24.50;94388.56;5099144;28;20047;-44
2021/03/08 04:43:38;;;;;;;48.97;34.45;;;;;;;12.69;25.56;94389.69;5117187;28;20048;-44
2021/03/08 04:46:06;;;;;;;50.42;35.78;;;;;;;13.02;25.22;94402.56;5099396;28;20051;-43
2021/03/08 04:48:35;;;;;;;49.42;36.38;;;;;;;12.87;25.34;94395.81;5099243;28;20054;-42
2021/03/08 04:51:06;;;;;;;51.42;37.40;;;;;;;12.77;25.17;94391.59;5099039;28;20043;-42
2021/03/08 04:53:35;;;;;;;46.47;35.30;;;;;;;12.37;26.18;94410.88;5098678;28;20446;-44
2021/03/08 04:56:03;;;;;;;48.45;34.72;;;;;;;12.75;25.49;94406.88;5104500;28;20055;-43
2021/03/08 04:58:31;;;;;;;43.95;32.92;;;;;;;12.82;25.61;94403.81;5078978;28;20044;-44
2021/03/08 05:00:58;;;;;;;46.00;33.17;;;;;;;12.92;25.49;94404.34;5103413;28;20048;-43
2021/03/08 05:03:27;;;;;;;43.85;32.75;;;;;;;12.71;25.44;94410.38;5099048;28;20051;-44
2021/03/08 05:05:56;;;;;;;50.50;35.28;;;;;;;12.67;25.92;94407.56;5117061;28;20050;-44
2021/03/08 05:08:24;;;;;;;44.38;33.63;;;;;;;13.08;25.70;94417.88;5099019;28;20047;-44
2021/03/08 05:10:52;;;;;;;50.35;34.72;;;;;;;13.13;25.56;94414.34;5098671;28;20048;-43
2021/03/08 05:13:20;;;;;;;50.45;36.50;;;;;;;13.06;25.32;94411.38;5098071;28;20125;-44
2021/03/08 05:15:47;;;;;;;50.33;37.22;;;;;;;13.03;25.88;94414.63;5116528;28;20442;-50
2021/03/08 05:18:16;;;;;;;58.33;41.55;;;;;;;13.29;25.45;94407.69;5095425;28;20043;-47
2021/03/08 05:20:43;;;;;;;52.42;39.15;;;;;;;13.23;25.72;94414.13;5082267;28;20055;-40
2021/03/08 05:23:10;;;;;;;59.00;41.47;;;;;;;13.18;25.77;94409.78;5097957;28;20070;-49
2021/03/08 05:25:38;;;;;;;56.90;42.33;;;;;;;13.34;25.70;94399.69;5116478;28;20327;-46
2021/03/08 05:28:06;;;;;;;69.45;44.55;;;;;;;13.72;24.96;94399.19;5106776;28;20063;-48
2021/03/08 05:30:33;;;;;;;81.47;55.58;;;;;;;13.21;25.82;94400.53;5084085;28;20459;-47
2021/03/08 05:33:18;;;;;;;74.05;49.75;;;;;;;13.69;25.44;94394.56;5116409;28;20054;-48
2021/03/08 05:35:52;;;;;;;62.60;44.08;;;;;;;13.32;25.69;94396.59;5112960;28;20058;-53
2021/03/08 05:38:22;;;;;;;64.45;45.10;;;;;;;13.70;25.69;94396.09;5110464;28;20051;-49
2021/03/08 05:41:04;;;;;;;64.50;46.40;;;;;;;14.03;25.36;94393.88;5097324;28;20044;-49
2021/03/08 05:43:34;;;;;;;69.60;50.28;;;;;;;14.63;24.35;94395.81;5116135;28;20357;-50
2021/03/08 05:46:22;;;;;;;67.35;48.35;;;;;;;14.54;24.35;94393.16;5100965;28;20054;-49
2021/03/08 05:49:16;;;;;;;62.42;46.47;;;;;;;14.73;24.34;94401.53;5044121;28;20051;-48
2021/03/08 05:52:01;;;;;;;67.28;46.63;;;;;;;14.70;24.18;94410.03;5107441;27;20046;-49
2021/03/08 05:54:47;;;;;;;69.63;48.30;;;;;;;15.08;23.61;94406.75;5095525;28;20047;-48
2021/03/08 05:57:25;;;;;;;69.88;49.15;;;;;;;15.05;24.15;94413.41;5095690;28;20044;-53
2021/03/08 06:00:18;;;;;;;65.72;49.40;;;;;;;15.14;23.61;94413.41;5077831;28;20052;-52
2021/03/08 06:02:49;;;;;;;67.43;52.00;;;;;;;15.40;23.88;94408.84;5136350;27;20050;-52
2021/03/08 06:05:22;;;;;;;68.97;51.50;;;;;;;15.39;23.51;94417.84;5136262;27;20077;-50
2021/03/08 06:08:02;;;;;;;71.40;51.03;;;;;;;15.25;23.68;94411.22;5108045;27;20052;-50
2021/03/08 06:10:33;;;;;;;70.43;52.10;;;;;;;15.16;23.75;94418.38;5096270;28;20059;-51
2021/03/08 06:13:08;;;;;;;70.95;51.78;;;;;;;15.65;23.75;94419.66;5115681;28;20051;-53
2021/03/08 06:15:37;;;;;;;62.67;46.85;;;;;;;15.33;23.35;94424.34;5115565;28;20055;-49
2021/03/08 06:18:07;;;;;;;60.60;44.63;;;;;;;15.93;23.08;94420.75;5097835;28;20043;-52
2021/03/08 06:20:35;;;;;;;63.45;47.70;;;;;;;15.63;23.08;94432.38;5097531;28;20051;-49
2021/03/08 06:23:03;;;;;;;66.07;49.70;;;;;;;15.93;23.41;94430.53;5115356;28;20047;-52
2021/03/08 06:25:30;;;;;;;58.00;45.50;;;;;;;16.14;23.34;94420.03;5097801;28;20039;-54
2021/03/08 06:27:57;;;;;;;56.72;41.50;;;;;;;16.24;22.97;94423.06;5115798;28;20050;-52
2021/03/08 06:30:25;;;;;;;59.35;42.65;;;;;;;16.43;22.58;94417.38;5094902;28;20362;-50
2021/03/08 06:32:52;;;;;;;54.33;40.85;;;;;;;16.81;21.96;94416.47;5122143;27;20050;-54
2021/03/08 06:35:19;;;;;;;59.55;43.63;;;;;;;16.76;22.07;94414.81;5122293;27;20120;-50
2021/03/08 06:37:47;;;;;;;63.63;45.03;;;;;;;16.84;21.92;94421.13;5140498;27;20046;-49
2021/03/08 06:40:15;;;;;;;64.65;46.53;;;;;;;16.65;22.02;94419.69;5140349;27;20047;-52
2021/03/08 06:42:43;;;;;;;52.38;40.58;;;;;;;17.02;21.35;94422.50;5112994;27;20040;-54
2021/03/08 06:45:10;;;;;;;59.63;42.97;;;;;;;16.98;21.71;94416.34;5080758;28;20044;-53
2021/03/08 06:47:38;;;;;;;58.17;44.70;;;;;;;17.32;21.49;94414.47;5099297;28;20059;-49
2021/03/08 06:50:06;;;;;;;54.38;42.80;;;;;;;17.31;21.21;94424.25;5099230;28;20048;-55
2021/03/08 06:52:43;;;;;;;58.38;42.65;;;;;;;17.17;21.46;94429.03;5115685;28;20044;-51
2021/03/08 06:55:11;;;;;;;61.88;46.03;;;;;;;17.79;20.57;94422.84;5119424;28;20043;-50
2021/03/08 06:57:38;;;;;;;55.40;43.60;;;;;;;17.13;21.36;94428.94;5101566;28;20051;-53
2021/03/08 07:00:08;;;;;;;57.72;44.13;;;;;;;17.91;21.26;94422.06;5119482;28;20050;-50
2021/03/08 07:02:46;;;;;;;51.30;40.55;;;;;;;17.81;20.86;94421.41;5119133;28;20054;-53
2021/03/08 07:05:35;;;;;;;54.08;42.13;;;;;;;18.44;20.40;94429.72;5119113;28;20385;-53
2021/03/08 07:08:02;;;;;;;55.72;40.95;;;;;;;18.70;20.15;94423.31;5097548;28;20048;-55
2021/03/08 07:10:40;;;;;;;50.50;39.00;;;;;;;18.41;20.08;94425.09;5098751;28;20040;-51
2021/03/08 07:13:09;;;;;;;45.53;36.25;;;;;;;18.73;19.91;94422.63;5098819;28;20044;-54
2021/03/08 07:16:03;;;;;;;43.97;35.97;;;;;;;18.66;19.66;94425.09;5098520;28;20055;-52
2021/03/08 07:18:30;;;;;;;43.85;34.92;;;;;;;18.63;19.87;94420.47;5088250;28;20390;-55
2021/03/08 07:21:12;;;;;;;40.03;31.88;;;;;;;19.01;19.30;94428.75;5103247;27;20063;-53
2021/03/08 07:23:43;;;;;;;42.50;32.25;;;;;;;18.98;19.20;94418.78;5109182;27;20059;-53
2021/03/08 07:26:19;;;;;;;37.90;30.83;;;;;;;18.84;19.16;94423.72;5098545;28;20071;-53
2021/03/08 07:29:13;;;;;;;37.25;30.23;;;;;;;19.17;18.89;94422.69;5098395;28;20063;-52
2021/03/08 07:31:41;;;;;;;39.60;31.98;;;;;;;19.10;19.20;94421.41;5106670;28;20074;-53
2021/03/08 07:34:11;;;;;;;33.67;26.35;;;;;;;19.34;18.91;94414.44;5118569;28;20043;-54
2021/03/08 07:36:40;;;;;;;26.40;22.33;;;;;;;19.62;18.33;94415.19;5118737;28;20480;-52
2021/03/08 07:39:12;;;;;;;28.40;24.58;;;;;;;19.75;18.77;94415.88;5086403;28;20054;-53
2021/03/08 07:42:00;;;;;;;36.55;28.58;;;;;;;19.71;18.55;94418.44;5088146;28;20047;-52
2021/03/08 07:44:29;;;;;;;36.45;29.05;;;;;;;19.92;18.65;94412.09;5118412;28;20044;-51
2021/03/08 07:47:14;;;;;;;39.15;30.25;;;;;;;20.36;18.53;94419.94;5100526;28;20060;-52
2021/03/08 07:49:41;;;;;;;42.22;32.00;;;;;;;19.92;18.24;94412.88;5100718;28;20059;-54
2021/03/08 07:52:09;;;;;;;36.35;30.33;;;;;;;19.67;18.71;94404.31;5117661;28;20047;-52
2021/03/08 07:54:56;;;;;;;38.75;30.85;;;;;;;19.34;18.46;94406.50;5118178;28;20075;-53
2021/03/08 07:57:25;;;;;;;38.38;30.92;;;;;;;20.20;18.78;94399.50;5118258;28;20052;-53
2021/03/08 07:59:52;;;;;;;37.60;31.23;;;;;;;20.08;18.67;94404.91;5118412;28;20047;-51
2021/03/08 08:02:20;;;;;;;41.55;31.90;;;;;;;20.51;18.30;94405.88;5117916;28;20051;-51
2021/03/08 08:04:47;;;;;;;40.33;32.28;;;;;;;20.84;18.08;94387.59;5111927;28;20054;-51
2021/03/08 08:07:15;;;;;;;39.15;32.30;;;;;;;21.01;17.96;94388.25;5097906;28;20048;-52
2021/03/08 08:09:43;;;;;;;41.50;33.05;;;;;;;21.07;17.85;94390.28;5097786;28;20044;-51
2021/03/08 08:12:18;;;;;;;44.67;32.45;;;;;;;20.71;17.90;94383.53;5109007;28;20051;-53
2021/03/08 08:14:45;;;;;;;45.25;35.03;;;;;;;20.72;18.23;94385.06;5082975;28;20380;-51
2021/03/08 08:17:17;;;;;;;54.05;39.65;;;;;;;20.74;17.79;94390.03;5100010;28;20059;-50
2021/03/08 08:19:54;;;;;;;46.72;38.55;;;;;;;21.01;18.25;94396.25;5101186;28;20052;-53
2021/03/08 08:22:22;;;;;;;44.33;34.72;;;;;;;20.91;17.93;94392.25;5099025;28;20047;-49
2021/03/08 08:24:52;;;;;;;44.88;34.20;;;;;;;21.28;17.23;94392.59;5117641;28;20082;-52
2021/03/08 08:27:20;;;;;;;43.40;35.58;;;;;;;21.40;17.13;94381.81;5084341;28;20055;-53
2021/03/08 08:29:49;;;;;;;45.65;35.35;;;;;;;21.57;17.58;94374.47;5062985;28;20040;-50
2021/03/08 08:32:17;;;;;;;46.45;34.83;;;;;;;21.44;17.40;94381.88;5108571;28;20040;-51
2021/03/08 08:34:46;;;;;;;45.97;35.63;;;;;;;21.87;16.88;94372.69;5111419;28;20431;-51
2021/03/08 08:37:15;;;;;;;44.00;34.83;;;;;;;21.93;16.61;94373.94;5097092;28;20062;-51
2021/03/08 08:40:02;;;;;;;40.60;33.60;;;;;;;22.06;16.54;94363.88;5097031;28;20044;-51
2021/03/08 08:42:30;;;;;;;43.13;35.55;;;;;;;22.35;16.82;94365.03;5109452;28;20055;-52
2021/03/08 08:44:58;;;;;;;56.58;36.00;;;;;;;22.28;16.18;94364.94;5108082;28;20055;-51
2021/03/08 08:47:35;;;;;;;45.20;36.33;;;;;;;22.12;16.79;94371.19;5086323;28;20078;-51
2021/03/08 08:50:09;;;;;;;44.88;35.13;;;;;;;22.38;16.18;94350.97;5117281;28;20079;-49
2021/03/08 08:52:53;;;;;;;46.92;35.53;;;;;;;21.97;16.42;94364.09;5116166;28;20039;-50
2021/03/08 08:55:22;;;;;;;49.75;35.75;;;;;;;22.43;16.87;94367.44;5117103;28;20051;-52
2021/03/08 08:58:28;;;;;;;43.33;34.92;;;;;;;22.66;16.38;94356.69;5099075;28;20055;-52
2021/03/08 09:03:54;;;;;;;43.40;35.92;;;;;;;22.91;15.83;94348.25;5096475;28;20059;-52
2021/03/08 09:06:54;;;;;;;39.78;34.92;;;;;;;23.17;15.77;94358.03;5096505;28;20050;-53
2021/03/08 09:09:32;;;;;;;45.78;35.83;;;;;;;22.81;15.91;94341.66;5088128;28;20052;-52
2021/03/08 09:12:02;;;;;;;43.28;36.33;;;;;;;22.70;15.98;94346.06;5104193;28;20042;-48
2021/03/08 09:14:47;;;;;;;42.38;35.90;;;;;;;22.84;16.05;94343.59;5102687;28;20051;-51
2021/03/08 09:17:14;;;;;;;43.33;36.17;;;;;;;22.68;15.96;94338.44;5096393;28;20044;-50
2021/03/08 09:19:43;;;;;;;40.40;34.95;;;;;;;23.53;15.96;94335.13;5096476;28;20056;-52
2021/03/08 09:22:23;;;;;;;43.10;35.85;;;;;;;23.33;15.61;94327.31;5104748;28;20044;-55
2021/03/08 09:24:54;;;;;;;47.05;37.95;;;;;;;23.54;15.42;94325.97;5116483;28;20446;-49
2021/03/08 09:27:34;;;;;;;46.33;40.00;;;;;;;23.61;15.69;94337.50;5116669;28;20113;-51
2021/03/08 09:30:11;;;;;;;43.58;38.80;;;;;;;23.45;16.49;94328.22;5116497;28;20066;-54
2021/03/08 09:32:49;;;;;;;48.38;39.38;;;;;;;23.00;16.10;94314.84;5116308;28;20039;-49
2021/03/08 09:35:18;;;;;;;47.53;40.22;;;;;;;23.47;15.99;94321.38;5116256;28;20054;-52
2021/03/08 09:37:51;;;;;;;48.50;40.85;;;;;;;23.56;15.91;94311.16;5116401;28;20048;-49
2021/03/08 09:40:29;;;;;;;48.53;38.45;;;;;;;24.20;16.36;94308.13;5116295;28;20047;-49
2021/03/08 09:42:57;;;;;;;48.58;38.40;;;;;;;24.25;15.65;94305.13;5115961;28;20370;-52
2021/03/08 09:45:34;;;;;;;47.75;37.35;;;;;;;24.28;15.26;94307.84;5098264;28;20450;-53
2021/03/08 09:48:03;;;;;;;44.38;38.97;;;;;;;24.31;15.03;94302.91;5095791;28;20055;-53
2021/03/08 09:50:33;;;;;;;48.92;37.83;;;;;;;24.78;14.91;94294.69;5096371;28;20047;-52
2021/03/08 09:53:01;;;;;;;43.38;37.50;;;;;;;25.14;14.97;94303.56;5114638;28;20047;-50
2021/03/08 09:55:36;;;;;;;48.03;37.17;;;;;;;25.32;14.90;94300.16;5106231;28;20050;-48
2021/03/08 09:58:15;;;;;;;42.05;34.67;;;;;;;24.73;14.63;94302.31;5095809;28;20048;-54
2021/03/08 10:00:48;;;;;;;44.67;35.30;;;;;;;25.16;14.56;94289.81;5095471;28;20383;-52
2021/03/08 10:03:15;;;;;;;44.83;35.22;;;;;;;25.13;14.49;94294.03;5112265;28;20048;-52
2021/03/08 10:05:50;;;;;;;41.78;35.58;;;;;;;25.05;13.99;94279.13;5103057;28;20446;-51
2021/03/08 10:08:19;;;;;;;44.58;35.20;;;;;;;25.24;14.75;94288.69;5095565;28;20055;-51
2021/03/08 10:10:53;;;;;;;36.20;26.65;;;;;;;25.29;13.62;94274.19;5095429;28;20102;-51
2021/03/08 10:13:21;;;;;;;40.58;33.80;;;;;;;25.10;14.82;94277.97;5112562;28;20055;-51
2021/03/08 10:15:56;;;;;;;31.67;25.55;;;;;;;25.55;14.08;94271.13;5115865;28;20048;-53
2021/03/08 10:18:25;;;;;;;27.25;22.02;;;;;;;25.74;13.62;94268.06;5096624;28;20442;-53
2021/03/08 10:20:58;;;;;;;12.30;8.73;;;;;;;26.07;11.89;94277.59;5115680;28;20051;-50
2021/03/08 10:23:30;;;;;;;10.57;5.10;;;;;;;25.65;10.73;94270.34;5085930;28;20048;-49
2021/03/08 10:26:11;;;;;;;5.85;4.97;;;;;;;26.49;11.32;94256.41;5095368;28;20059;-51
2021/03/08 10:28:50;;;;;;;9.18;4.97;;;;;;;26.96;11.31;94263.81;5104866;28;20039;-51
2021/03/08 10:31:24;;;;;;;8.27;4.93;;;;;;;27.08;11.05;94253.81;5099938;28;20040;-52
2021/03/08 10:34:03;;;;;;;7.20;4.75;;;;;;;27.57;10.60;94253.41;5095172;28;20036;-51
2021/03/08 10:36:35;;;;;;;6.47;4.28;;;;;;;27.06;10.71;94253.44;5077472;28;20050;-52
2021/03/08 10:39:09;;;;;;;7.63;4.50;;;;;;;26.93;10.45;94243.16;5107884;28;20039;-51
2021/03/08 10:41:37;;;;;;;6.22;4.32;;;;;;;26.78;11.25;94239.00;5115600;28;20052;-52
2021/03/08 10:44:06;;;;;;;6.70;5.03;;;;;;;27.00;10.98;94235.06;5097614;28;20044;-50
2021/03/08 10:46:35;;;;;;;7.65;5.25;;;;;;;27.52;10.94;94245.03;5115439;28;20043;-51
2021/03/08 10:49:08;;;;;;;6.30;4.40;;;;;;;27.29;10.80;94240.22;5097088;28;20043;-50
2021/03/08 10:51:37;;;;;;;5.13;4.03;;;;;;;26.61;10.04;94237.97;5115410;28;20039;-54
2021/03/08 10:54:06;;;;;;;6.25;4.28;;;;;;;26.55;11.14;94225.38;5103286;28;20048;-51
2021/03/08 10:56:37;;;;;;;7.60;4.13;;;;;;;26.62;11.29;94222.66;5095148;28;20051;-52
2021/03/08 10:59:26;;;;;;;5.93;4.67;;;;;;;27.21;10.06;94226.13;5106644;28;20040;-52
2021/03/08 11:02:00;;;;;;;7.97;4.90;;;;;;;27.23;10.86;94220.34;5115250;28;20047;-52
2021/03/08 11:04:28;;;;;;;6.47;4.72;;;;;;;27.22;10.31;94200.81;5115286;28;20367;-51
2021/03/08 11:06:55;;;;;;;6.10;4.47;;;;;;;27.39;10.69;94212.56;5083472;28;20044;-53
2021/03/08 11:09:30;;;;;;;5.55;4.53;;;;;;;27.48;11.04;94206.72;5094998;28;20048;-50
2021/03/08 11:11:58;;;;;;;7.63;4.70;;;;;;;27.27;10.34;94196.94;5094966;28;20493;-55
2021/03/08 11:14:26;;;;;;;6.70;4.95;;;;;;;27.36;10.52;94189.22;5094887;28;20055;-51
2021/03/08 11:16:54;;;;;;;10.50;5.35;;;;;;;27.59;9.93;94186.69;5097272;28;20048;-51
2021/03/08 11:19:28;;;;;;;8.52;4.72;;;;;;;27.54;9.74;94181.72;5098850;28;20366;-54
2021/03/08 11:22:10;;;;;;;7.40;4.65;;;;;;;27.51;10.48;94174.47;5100480;28;20408;-50
2021/03/08 11:24:46;;;;;;;6.57;4.60;;;;;;;27.27;10.81;94164.72;5118899;28;20369;-52
2021/03/08 11:27:26;;;;;;;7.40;4.78;;;;;;;27.94;10.33;94174.06;5119036;28;20051;-53
2021/03/08 11:30:11;;;;;;;6.68;4.68;;;;;;;27.69;10.25;94173.56;5118645;28;20347;-50
2021/03/08 11:32:40;;;;;;;7.32;4.22;;;;;;;27.01;9.92;94158.81;5098447;28;20040;-51
2021/03/08 11:35:18;;;;;;;7.88;4.85;;;;;;;26.71;10.25;94158.63;5098209;28;20040;-54
2021/03/08 11:37:53;;;;;;;7.13;4.93;;;;;;;26.50;10.66;94148.03;5098412;28;20374;-53
2021/03/08 11:40:22;;;;;;;5.30;4.28;;;;;;;26.60;9.86;94150.66;5104312;28;20039;-55
2021/03/08 11:42:50;;;;;;;5.85;3.95;;;;;;;26.55;9.98;94136.94;5118374;28;20058;-50
2021/03/08 11:45:18;;;;;;;9.25;4.32;;;;;;;26.85;9.83;94139.78;5118641;28;20040;-55